Time;durP1;ratioP1;P1;durP2;ratioP2;P2;SDS_P1;SDS_P2;PMS_P1;PMS_P2;Temp;Humidity;BMP_temperature;BMP_pressure;BME280_temperature;BME280_humidity;BME280_pressure;Samples;Min_cycle;Max_cycle;Signal;HPM_P1;HPM_P2
2021/04/27 17:26:01;;;;;;;7.38;3.60;;;;;;;;;;5080530;27;20376;-80
2021/04/27 17:28:27;;;;;;;6.93;3.58;;;;;;;;;;5053065;28;58698;-82
2021/04/27 17:33:19;;;;;;;8.40;3.90;;;;;;;;;;5021578;27;58746;-81
2021/04/27 17:36:49;;;;;;;10.93;3.88;;;;;;;20.56;46.97;97769.25;5109083;27;20347;-82
2021/04/27 17:39:15;;;;;;;4.55;3.50;;;;;;;20.56;46.60;97779.19;5065747;28;75609;-86
2021/04/27 17:41:40;;;;;;;4.88;3.65;;;;;;;;;;5071719;28;20075;-84
2021/04/27 17:44:06;;;;;;;6.88;3.75;;;;;;;20.48;46.86;97782.53;5080349;28;76257;-89
2021/04/27 17:46:33;;;;;;;5.50;3.47;;;;;;;20.44;47.04;97778.38;5077720;28;62334;-89
2021/04/27 17:48:59;;;;;;;5.97;3.58;;;;;;;20.38;47.27;97778.88;5086684;28;20081;-84
2021/04/27 17:51:24;;;;;;;6.68;3.70;;;;;;;20.39;47.38;97788.72;5088714;28;20024;-84
2021/04/27 17:53:50;;;;;;;6.03;3.60;;;;;;;20.40;47.44;97793.97;5088851;28;20753;-85
2021/04/27 17:56:15;;;;;;;6.97;3.38;;;;;;;20.43;46.73;97796.44;5070978;28;20024;-83
2021/04/27 17:58:41;;;;;;;7.35;4.03;;;;;;;20.37;47.60;97796.06;5082651;28;20764;-83
2021/04/27 18:01:06;;;;;;;4.75;3.38;;;;;;;20.43;46.90;97791.03;5034650;28;67322;-83
2021/04/27 18:03:32;;;;;;;4.88;3.33;;;;;;;20.41;47.46;97797.53;5074956;28;20032;-84
2021/04/27 18:05:57;;;;;;;5.85;3.95;;;;;;;20.33;47.23;97803.56;5080091;28;20048;-80
2021/04/27 18:08:23;;;;;;;6.50;3.72;;;;;;;20.39;47.09;97807.63;5050046;28;20040;-82
2021/04/27 18:10:48;;;;;;;8.15;3.85;;;;;;;20.35;47.06;97803.44;5079401;28;20630;-83
2021/04/27 18:16:47;;;;;;;7.32;3.97;;;;;;;19.81;48.13;97811.34;5082236;27;20719;-64
2021/04/27 18:19:13;;;;;;;5.65;3.75;;;;;;;19.54;49.11;97813.50;5089383;28;20039;-63
2021/04/27 18:21:38;;;;;;;8.35;3.70;;;;;;;19.27;49.97;97810.16;5085825;28;21819;-64
2021/04/27 18:24:04;;;;;;;4.78;3.67;;;;;;;19.08;50.52;97807.19;5084045;28;20024;-64
2021/04/27 18:26:29;;;;;;;6.40;3.78;;;;;;;18.94;51.02;97827.09;5082123;28;20082;-64
2021/04/27 18:28:56;;;;;;;5.50;3.90;;;;;;;18.83;51.87;97833.31;5085019;28;20063;-63
2021/04/27 18:31:24;;;;;;;5.28;4.05;;;;;;;18.73;52.00;97832.25;5079397;28;20024;-65
2021/04/27 18:33:49;;;;;;;6.05;4.05;;;;;;;18.69;52.15;97838.84;5087948;28;20028;-63
2021/04/27 18:36:15;;;;;;;5.07;3.97;;;;;;;18.65;52.28;97843.63;5086965;28;20070;-64
2021/04/27 18:38:40;;;;;;;6.32;4.25;;;;;;;18.60;52.63;97840.38;5082012;28;20028;-64
2021/04/27 18:41:06;;;;;;;7.30;4.25;;;;;;;18.58;52.85;97849.56;5081311;28;20707;-64
2021/04/27 18:43:32;;;;;;;5.70;4.10;;;;;;;18.56;52.90;97846.97;5083657;28;20032;-64
2021/04/27 18:45:57;;;;;;;6.13;4.00;;;;;;;18.55;53.16;97856.03;5080542;28;20024;-65
2021/04/27 18:48:25;;;;;;;5.95;4.18;;;;;;;18.55;53.52;97849.78;5082419;28;20067;-65
2021/04/27 18:50:51;;;;;;;6.20;4.03;;;;;;;18.54;53.79;97862.41;5081607;28;20543;-65
2021/04/27 18:53:17;;;;;;;6.95;4.50;;;;;;;18.54;53.71;97866.91;5084611;28;20032;-64
2021/04/27 18:55:44;;;;;;;9.10;5.18;;;;;;;18.56;53.64;97875.72;5087799;28;20025;-65
2021/04/27 18:58:12;;;;;;;6.70;4.90;;;;;;;18.56;53.63;97868.50;5084131;28;20034;-65
2021/04/27 19:00:38;;;;;;;8.67;4.70;;;;;;;18.59;54.21;97879.06;5076951;28;20042;-61
2021/04/27 19:03:04;;;;;;;6.97;5.05;;;;;;;18.59;54.49;97873.69;5083969;28;20028;-64
2021/04/27 19:05:29;;;;;;;7.22;5.50;;;;;;;18.61;54.96;97881.66;5086941;28;20023;-65
2021/04/27 19:07:56;;;;;;;6.32;5.38;;;;;;;18.58;55.10;97877.34;5086327;28;20079;-64
2021/04/27 19:10:21;;;;;;;6.65;5.45;;;;;;;18.59;55.08;97879.06;5083431;28;20044;-67
2021/04/27 19:12:52;;;;;;;7.97;5.15;;;;;;;18.58;55.01;97885.41;5085873;28;20047;-64
2021/04/27 19:15:19;;;;;;;6.43;4.80;;;;;;;18.57;55.31;97877.47;5079203;28;20074;-63
2021/04/27 19:17:45;;;;;;;7.50;4.82;;;;;;;18.56;54.81;97886.50;5087710;28;20571;-65
2021/04/27 19:20:11;;;;;;;6.32;4.85;;;;;;;18.52;54.40;97883.19;5082871;28;20024;-66
2021/04/27 19:22:36;;;;;;;6.25;5.25;;;;;;;18.54;54.36;97880.38;5084602;28;20023;-65
2021/04/27 19:25:02;;;;;;;6.65;4.78;;;;;;;18.54;54.05;97886.63;5086081;28;20024;-65
2021/04/27 19:27:27;;;;;;;8.57;5.47;;;;;;;18.52;54.22;97891.28;5070100;28;20031;-64
2021/04/27 19:29:53;;;;;;;8.95;4.78;;;;;;;18.53;54.25;97895.66;5064458;28;20060;-65
2021/04/27 19:32:21;;;;;;;7.30;5.05;;;;;;;18.53;54.31;97892.97;5066398;28;20035;-64
2021/04/27 19:34:47;;;;;;;8.27;4.75;;;;;;;18.51;54.65;97889.53;5067839;28;20449;-66
2021/04/27 19:37:12;;;;;;;7.85;4.72;;;;;;;18.52;54.94;97899.34;5063436;28;20020;-64
2021/04/27 19:39:38;;;;;;;7.03;4.70;;;;;;;18.52;54.79;97899.34;5062181;28;20033;-66
2021/04/27 19:42:03;;;;;;;8.35;4.88;;;;;;;18.54;54.65;97902.78;5003809;28;20057;-65
2021/04/27 19:44:38;;;;;;;6.90;4.80;;;;;;;18.56;54.67;97911.59;4788203;28;146452;-66
2021/04/27 19:47:06;;;;;;;6.65;4.55;;;;;;;18.56;54.58;97903.50;5024697;28;20071;-65
2021/04/27 19:49:32;;;;;;;6.05;4.63;;;;;;;18.55;54.38;97904.50;5025064;28;21006;-63
2021/04/27 19:51:58;;;;;;;7.10;5.35;;;;;;;18.54;54.35;97907.28;5022965;28;20057;-65
2021/04/27 19:54:23;;;;;;;7.18;4.88;;;;;;;18.54;54.45;97905.47;5023109;28;20407;-67
2021/04/27 19:56:48;;;;;;;5.43;4.63;;;;;;;18.53;54.24;97900.19;5022191;28;20099;-67
2021/04/27 19:59:14;;;;;;;6.88;4.88;;;;;;;18.50;54.42;97903.97;5023721;28;20036;-66
2021/04/27 20:01:39;;;;;;;6.72;4.70;;;;;;;18.50;54.32;97912.06;5022424;28;20041;-67
2021/04/27 20:04:05;;;;;;;6.85;4.40;;;;;;;18.50;54.33;97901.28;5023591;28;20103;-66
2021/04/27 20:06:33;;;;;;;6.82;4.20;;;;;;;18.48;54.42;97909.47;5023554;28;20025;-64
2021/04/27 20:08:59;;;;;;;5.60;4.28;;;;;;;18.51;54.46;97908.38;5023344;28;20029;-66
2021/04/27 20:11:24;;;;;;;6.72;4.15;;;;;;;18.52;54.35;97912.81;5022953;28;20037;-65
2021/04/27 20:13:50;;;;;;;5.50;3.97;;;;;;;18.52;54.34;97911.94;5023346;28;20033;-65
2021/04/27 20:16:18;;;;;;;5.82;4.13;;;;;;;18.51;54.53;97915.59;5016840;28;20852;-66
2021/04/27 20:18:44;;;;;;;7.03;4.40;;;;;;;18.48;54.42;97919.38;5021984;28;20041;-66
2021/04/27 20:21:09;;;;;;;7.60;4.15;;;;;;;18.46;54.39;97910.56;5008297;28;20036;-68
2021/04/27 20:23:34;;;;;;;6.28;3.83;;;;;;;18.47;54.28;97906.88;4996978;28;67885;-66
2021/04/27 20:26:00;;;;;;;6.75;3.88;;;;;;;18.48;54.31;97914.00;5019219;28;20030;-64
2021/04/27 20:29:18;;;;;;;7.22;4.30;;;;;;;18.50;54.06;97916.56;4907930;28;20351;-65
2021/04/27 20:31:46;;;;;;;6.55;4.13;;;;;;;18.49;54.01;97918.41;4858474;28;71204;-65
2021/04/27 20:34:12;;;;;;;4.72;3.78;;;;;;;18.48;53.81;97914.84;5022500;28;20026;-64
2021/04/27 20:36:37;;;;;;;5.97;3.90;;;;;;;18.49;53.88;97913.00;4990997;28;20095;-66
2021/04/27 20:39:04;;;;;;;5.55;3.65;;;;;;;18.48;53.83;97914.00;5005044;28;20818;-67
2021/04/27 20:41:29;;;;;;;5.82;4.20;;;;;;;18.49;53.71;97918.41;5001723;28;20040;-66
2021/04/27 20:43:55;;;;;;;6.15;3.78;;;;;;;18.50;53.70;97920.13;5004472;28;20034;-64
2021/04/27 20:46:20;;;;;;;5.95;3.72;;;;;;;18.51;53.72;97924.53;5001958;28;20041;-64
2021/04/27 20:48:50;;;;;;;7.15;3.80;;;;;;;18.50;53.62;97924.63;5003096;28;20041;-66
2021/04/27 20:51:16;;;;;;;5.18;3.85;;;;;;;18.50;53.63;97924.63;5004189;28;20180;-67
2021/04/27 20:53:44;;;;;;;5.25;4.35;;;;;;;18.51;53.50;97923.69;5003249;28;20034;-66
2021/04/27 20:56:10;;;;;;;6.93;3.97;;;;;;;18.51;53.52;97919.16;4999133;28;20447;-62
2021/04/27 20:58:36;;;;;;;5.65;3.80;;;;;;;18.51;53.46;97923.69;4932603;28;20423;-64
2021/04/27 21:01:02;;;;;;;5.03;3.75;;;;;;;18.50;53.43;97920.13;4999581;28;20042;-65
2021/04/27 21:03:27;;;;;;;6.40;3.75;;;;;;;18.51;53.33;97919.16;5005453;28;20029;-65
2021/04/27 21:05:53;;;;;;;5.05;3.78;;;;;;;18.51;53.14;97921.00;5002794;28;20503;-67
2021/04/27 21:08:18;;;;;;;4.97;3.90;;;;;;;18.51;53.19;97929.91;5005570;28;20180;-63
2021/04/27 21:10:44;;;;;;;5.60;3.80;;;;;;;18.52;53.24;97930.78;5003782;28;20117;-65
2021/04/27 21:13:10;;;;;;;5.68;4.43;;;;;;;18.50;53.18;97928.22;4921910;28;20068;-66
2021/04/27 21:15:35;;;;;;;6.15;3.83;;;;;;;18.51;53.20;97929.91;5018797;28;20053;-66
2021/04/27 21:18:03;;;;;;;5.93;3.85;;;;;;;18.53;53.07;97933.38;4947553;28;20049;-64
2021/04/27 21:20:29;;;;;;;5.82;3.60;;;;;;;18.52;53.19;97931.66;5005171;28;20036;-65
2021/04/27 21:22:55;;;;;;;4.47;3.30;;;;;;;18.50;53.01;97935.41;5005198;28;20029;-66
2021/04/27 21:25:23;;;;;;;6.10;4.00;;;;;;;18.50;53.04;97938.97;5006321;28;20488;-64
2021/04/27 21:27:49;;;;;;;6.45;4.00;;;;;;;18.48;53.12;97936.41;5005130;28;21036;-65
2021/04/27 21:30:15;;;;;;;6.90;3.80;;;;;;;18.50;53.13;97933.59;5001945;28;20037;-66
2021/04/27 21:32:42;;;;;;;6.47;3.80;;;;;;;18.50;53.11;97938.97;5005049;28;20484;-65
2021/04/27 21:35:08;;;;;;;7.90;3.70;;;;;;;18.50;53.08;97938.97;5004032;28;20038;-65
2021/04/27 21:37:34;;;;;;;6.28;4.00;;;;;;;18.51;52.90;97934.44;5001950;28;20060;-64
2021/04/27 21:39:59;;;;;;;5.18;3.83;;;;;;;18.50;52.90;97938.97;4996396;28;20045;-64
2021/04/27 21:42:25;;;;;;;4.78;3.80;;;;;;;18.50;53.03;97938.09;4963934;28;67860;-66
2021/04/27 21:44:51;;;;;;;6.28;3.60;;;;;;;18.51;52.82;97942.53;4931705;28;72406;-67
2021/04/27 21:47:17;;;;;;;4.72;3.65;;;;;;;18.50;52.79;97938.09;5009831;28;20041;-65
2021/04/27 21:49:43;;;;;;;6.07;3.55;;;;;;;18.48;52.77;97944.47;5009767;28;20485;-65
2021/04/27 21:52:08;;;;;;;5.15;3.75;;;;;;;18.49;52.80;97939.94;5010702;28;20052;-65
2021/04/27 21:54:34;;;;;;;5.72;3.83;;;;;;;18.48;52.78;97940.94;4986056;28;20018;-65
2021/04/27 21:59:13;;;;;;;7.22;3.63;;;;;;;18.49;52.72;97937.25;5079954;27;20420;-65
2021/04/27 22:01:39;;;;;;;6.13;3.60;;;;;;;18.48;52.74;97940.94;4940875;28;66389;-64
2021/04/27 22:04:05;;;;;;;5.38;3.60;;;;;;;18.48;52.78;97946.31;5035076;28;20056;-65
2021/04/27 22:06:31;;;;;;;5.60;3.60;;;;;;;18.47;52.73;97939.19;5046167;28;20052;-65
2021/04/27 22:08:57;;;;;;;5.30;3.65;;;;;;;18.48;52.60;97941.78;5041682;28;20410;-63
2021/04/27 22:11:23;;;;;;;6.20;3.70;;;;;;;18.47;52.59;97944.56;5046263;28;20502;-65
2021/04/27 22:13:49;;;;;;;5.10;3.70;;;;;;;18.47;52.73;97949.97;5059968;28;20082;-64
2021/04/27 22:16:16;;;;;;;5.25;3.53;;;;;;;18.44;52.58;97944.81;5060723;28;20059;-65
2021/04/27 22:18:41;;;;;;;5.10;3.63;;;;;;;18.45;52.64;97943.81;5061183;28;20053;-66
2021/04/27 22:21:07;;;;;;;5.13;3.40;;;;;;;18.42;52.61;97950.28;5059404;28;20049;-65
2021/04/27 22:23:33;;;;;;;5.55;3.72;;;;;;;18.45;52.54;97949.19;5062872;28;20049;-65
2021/04/27 22:25:59;;;;;;;6.00;3.35;;;;;;;18.45;52.65;97951.91;5063437;28;20048;-65
2021/04/27 22:28:25;;;;;;;6.28;3.45;;;;;;;18.44;52.59;97952.88;5063818;28;20048;-65
2021/04/27 22:30:52;;;;;;;5.53;3.70;;;;;;;18.44;52.53;97955.56;5059573;28;20044;-65
2021/04/27 22:33:19;;;;;;;4.85;3.60;;;;;;;18.43;52.49;97954.72;5063828;28;20049;-63
2021/04/27 22:35:45;;;;;;;4.40;3.50;;;;;;;18.44;52.69;97950.19;5062901;28;20057;-64
2021/04/27 22:38:11;;;;;;;5.38;3.45;;;;;;;18.44;52.51;97952.88;5063521;28;20041;-65
2021/04/27 22:40:38;;;;;;;5.22;3.47;;;;;;;18.44;52.39;97959.13;5063230;28;20071;-66
2021/04/27 22:43:06;;;;;;;8.27;3.55;;;;;;;18.42;52.57;97961.06;5063106;28;20049;-62
2021/04/27 22:45:33;;;;;;;5.85;3.38;;;;;;;18.42;52.42;97952.13;5061089;28;20055;-64
2021/04/27 22:47:59;;;;;;;5.18;3.50;;;;;;;18.42;52.55;97950.28;5063516;28;20155;-63
2021/04/27 22:50:27;;;;;;;5.50;3.65;;;;;;;18.41;52.55;97945.91;5062153;28;20033;-64
2021/04/27 22:52:53;;;;;;;4.22;3.33;;;;;;;18.40;52.44;97946.84;5063017;28;20045;-63
2021/04/27 22:55:22;;;;;;;4.28;3.20;;;;;;;18.42;52.41;97947.59;5063645;28;20060;-65
2021/04/27 22:57:47;;;;;;;5.40;3.63;;;;;;;18.42;52.40;97946.75;5063109;28;20592;-65
2021/04/27 23:00:16;;;;;;;5.38;3.50;;;;;;;18.41;52.46;97953.09;5060128;28;20045;-65
2021/04/27 23:02:42;;;;;;;5.00;3.45;;;;;;;18.41;52.44;97953.09;5062086;28;20152;-64
2021/04/27 23:05:09;;;;;;;5.35;3.47;;;;;;;18.40;52.56;97952.22;5062847;28;20139;-65
2021/04/27 23:07:36;;;;;;;5.68;3.63;;;;;;;18.40;52.53;97943.31;5063193;28;20037;-66
2021/04/27 23:10:03;;;;;;;4.30;3.58;;;;;;;18.39;52.43;97946.94;5052493;28;20141;-64
2021/04/27 23:12:28;;;;;;;6.13;3.78;;;;;;;18.39;52.48;97947.84;5049089;28;20047;-63
2021/04/27 23:14:54;;;;;;;5.97;3.60;;;;;;;18.38;52.50;97948.78;5046381;28;20095;-66
2021/04/27 23:17:20;;;;;;;4.28;3.28;;;;;;;18.40;52.36;97943.31;5050209;28;20049;-65
2021/04/27 23:19:46;;;;;;;4.75;3.25;;;;;;;18.41;52.38;97953.97;5048292;28;20041;-65
2021/04/27 23:22:11;;;;;;;4.85;3.35;;;;;;;18.40;52.33;97951.38;5048558;28;20448;-64
2021/04/27 23:24:38;;;;;;;5.78;3.40;;;;;;;18.41;52.36;97947.69;5049844;28;20056;-66
2021/04/27 23:27:04;;;;;;;5.25;3.35;;;;;;;18.38;52.40;97948.78;5049214;28;20053;-65
2021/04/27 23:29:30;;;;;;;4.38;3.25;;;;;;;18.40;52.37;97943.31;5049886;28;20670;-65
2021/04/27 23:31:56;;;;;;;4.68;3.15;;;;;;;18.37;52.43;97947.09;5049078;28;20045;-64
2021/04/27 23:34:21;;;;;;;4.10;2.97;;;;;;;18.37;52.57;97940.84;5047617;28;20055;-65
2021/04/27 23:36:47;;;;;;;4.50;3.20;;;;;;;18.36;52.52;97941.81;5049499;28;20067;-64
2021/04/27 23:39:13;;;;;;;4.93;3.10;;;;;;;18.38;52.37;97938.03;5049385;28;20491;-64
2021/04/27 23:41:40;;;;;;;4.18;3.30;;;;;;;18.39;52.37;97942.44;5049028;28;20132;-66
2021/04/27 23:44:06;;;;;;;4.35;3.40;;;;;;;18.40;52.31;97943.31;5048970;28;20449;-65
2021/04/27 23:46:31;;;;;;;4.28;3.35;;;;;;;18.38;52.34;97932.63;5046175;28;20048;-64
2021/04/27 23:48:58;;;;;;;6.18;3.13;;;;;;;18.40;52.35;97932.53;5046981;28;20402;-63
2021/04/27 23:51:24;;;;;;;4.55;3.30;;;;;;;18.39;52.27;97926.31;5049381;28;20094;-63
2021/04/27 23:53:50;;;;;;;4.25;3.10;;;;;;;18.38;52.33;97929.94;5048066;28;20091;-65
2021/04/27 23:56:15;;;;;;;4.32;3.38;;;;;;;18.39;52.19;97936.19;5049045;28;20045;-66
2021/04/27 23:58:42;;;;;;;4.45;3.08;;;;;;;18.37;52.22;97930.09;5049024;28;20510;-64
